sensor_id;sensor_type;location;lat;lon;timestamp;P1;durP1;ratioP1;P2;durP2;ratioP2
5032;SDS011;2535;49.888;8.942;2023-08-07T00:01:17;33.37;;;1.20;;
5032;SDS011;2535;49.888;8.942;2023-08-07T00:03:43;33.57;;;1.20;;
5032;SDS011;2535;49.888;8.942;2023-08-07T00:06:09;34.30;;;1.50;;
5032;SDS011;2535;49.888;8.942;2023-08-07T00:08:35;34.00;;;1.30;;
5032;SDS011;2535;49.888;8.942;2023-08-07T00:11:06;33.57;;;1.33;;
5032;SDS011;2535;49.888;8.942;2023-08-07T00:13:33;33.97;;;1.30;;
5032;SDS011;2535;49.888;8.942;2023-08-07T00:16:00;35.97;;;1.57;;
5032;SDS011;2535;49.888;8.942;2023-08-07T00:18:26;33.73;;;1.50;;
5032;SDS011;2535;49.888;8.942;2023-08-07T00:20:51;34.07;;;1.40;;
5032;SDS011;2535;49.888;8.942;2023-08-07T00:23:17;34.17;;;1.40;;
5032;SDS011;2535;49.888;8.942;2023-08-07T00:25:43;35.47;;;1.60;;
5032;SDS011;2535;49.888;8.942;2023-08-07T00:28:09;34.40;;;1.70;;
5032;SDS011;2535;49.888;8.942;2023-08-07T00:30:35;41.40;;;1.93;;
5032;SDS011;2535;49.888;8.942;2023-08-07T00:33:01;34.50;;;1.50;;
5032;SDS011;2535;49.888;8.942;2023-08-07T00:35:27;34.07;;;1.30;;
5032;SDS011;2535;49.888;8.942;2023-08-07T00:37:53;34.60;;;1.47;;
5032;SDS011;2535;49.888;8.942;2023-08-07T00:40:19;33.97;;;1.40;;
5032;SDS011;2535;49.888;8.942;2023-08-07T00:42:45;40.80;;;2.03;;
5032;SDS011;2535;49.888;8.942;2023-08-07T00:45:11;34.10;;;1.30;;
5032;SDS011;2535;49.888;8.942;2023-08-07T00:47:37;34.70;;;1.70;;
5032;SDS011;2535;49.888;8.942;2023-08-07T00:50:03;34.80;;;1.50;;
5032;SDS011;2535;49.888;8.942;2023-08-07T00:52:30;34.90;;;1.60;;
5032;SDS011;2535;49.888;8.942;2023-08-07T00:54:56;34.90;;;1.90;;
5032;SDS011;2535;49.888;8.942;2023-08-07T00:57:22;34.90;;;1.50;;
5032;SDS011;2535;49.888;8.942;2023-08-07T00:59:49;34.70;;;1.40;;
5032;SDS011;2535;49.888;8.942;2023-08-07T01:02:16;35.00;;;1.60;;
5032;SDS011;2535;49.888;8.942;2023-08-07T01:04:42;33.73;;;1.40;;
5032;SDS011;2535;49.888;8.942;2023-08-07T01:07:08;33.87;;;1.27;;
5032;SDS011;2535;49.888;8.942;2023-08-07T01:09:34;34.50;;;1.80;;
5032;SDS011;2535;49.888;8.942;2023-08-07T01:12:44;34.20;;;1.37;;
5032;SDS011;2535;49.888;8.942;2023-08-07T01:17:16;34.70;;;1.80;;
5032;SDS011;2535;49.888;8.942;2023-08-07T01:19:42;33.87;;;1.60;;
5032;SDS011;2535;49.888;8.942;2023-08-07T01:22:11;33.87;;;1.40;;
5032;SDS011;2535;49.888;8.942;2023-08-07T01:24:38;34.70;;;1.97;;
5032;SDS011;2535;49.888;8.942;2023-08-07T01:29:39;34.13;;;1.60;;
5032;SDS011;2535;49.888;8.942;2023-08-07T01:32:07;40.43;;;1.90;;
5032;SDS011;2535;49.888;8.942;2023-08-07T01:34:35;36.93;;;2.00;;
5032;SDS011;2535;49.888;8.942;2023-08-07T01:37:02;37.07;;;1.40;;
5032;SDS011;2535;49.888;8.942;2023-08-07T01:39:29;34.20;;;1.73;;
5032;SDS011;2535;49.888;8.942;2023-08-07T01:41:56;40.23;;;1.50;;
5032;SDS011;2535;49.888;8.942;2023-08-07T01:44:25;33.67;;;1.40;;
5032;SDS011;2535;49.888;8.942;2023-08-07T01:46:51;34.20;;;1.80;;
5032;SDS011;2535;49.888;8.942;2023-08-07T01:49:17;38.30;;;1.83;;
5032;SDS011;2535;49.888;8.942;2023-08-07T01:51:43;34.43;;;1.80;;
5032;SDS011;2535;49.888;8.942;2023-08-07T01:54:09;34.07;;;1.60;;
5032;SDS011;2535;49.888;8.942;2023-08-07T01:56:35;34.60;;;2.00;;
5032;SDS011;2535;49.888;8.942;2023-08-07T01:59:01;35.23;;;1.60;;
5032;SDS011;2535;49.888;8.942;2023-08-07T02:01:26;42.97;;;1.93;;
5032;SDS011;2535;49.888;8.942;2023-08-07T02:03:52;35.07;;;1.77;;
5032;SDS011;2535;49.888;8.942;2023-08-07T02:06:18;35.77;;;2.53;;
5032;SDS011;2535;49.888;8.942;2023-08-07T02:08:44;39.10;;;2.40;;
5032;SDS011;2535;49.888;8.942;2023-08-07T02:11:10;37.60;;;2.27;;
5032;SDS011;2535;49.888;8.942;2023-08-07T02:13:36;35.70;;;2.00;;
5032;SDS011;2535;49.888;8.942;2023-08-07T02:16:02;34.90;;;1.80;;
5032;SDS011;2535;49.888;8.942;2023-08-07T02:18:28;35.33;;;1.47;;
5032;SDS011;2535;49.888;8.942;2023-08-07T02:20:54;34.77;;;1.90;;
5032;SDS011;2535;49.888;8.942;2023-08-07T02:23:20;35.73;;;1.90;;
5032;SDS011;2535;49.888;8.942;2023-08-07T02:25:46;34.40;;;1.40;;
5032;SDS011;2535;49.888;8.942;2023-08-07T02:28:13;35.17;;;1.80;;
5032;SDS011;2535;49.888;8.942;2023-08-07T02:30:39;34.47;;;1.70;;
5032;SDS011;2535;49.888;8.942;2023-08-07T02:33:05;34.90;;;1.77;;
5032;SDS011;2535;49.888;8.942;2023-08-07T02:35:31;36.10;;;1.87;;
5032;SDS011;2535;49.888;8.942;2023-08-07T02:37:57;34.57;;;1.70;;
5032;SDS011;2535;49.888;8.942;2023-08-07T02:40:23;34.73;;;1.57;;
5032;SDS011;2535;49.888;8.942;2023-08-07T02:42:49;35.53;;;1.90;;
5032;SDS011;2535;49.888;8.942;2023-08-07T02:45:16;37.20;;;1.90;;
5032;SDS011;2535;49.888;8.942;2023-08-07T02:47:42;35.83;;;1.77;;
5032;SDS011;2535;49.888;8.942;2023-08-07T02:50:08;34.70;;;2.00;;
5032;SDS011;2535;49.888;8.942;2023-08-07T02:52:34;35.00;;;1.80;;
5032;SDS011;2535;49.888;8.942;2023-08-07T02:55:00;34.70;;;1.60;;
5032;SDS011;2535;49.888;8.942;2023-08-07T02:57:26;34.50;;;1.73;;
5032;SDS011;2535;49.888;8.942;2023-08-07T02:59:52;35.20;;;1.77;;
5032;SDS011;2535;49.888;8.942;2023-08-07T03:02:18;35.30;;;2.03;;
5032;SDS011;2535;49.888;8.942;2023-08-07T03:04:44;35.00;;;1.90;;
5032;SDS011;2535;49.888;8.942;2023-08-07T03:07:10;34.77;;;1.53;;
5032;SDS011;2535;49.888;8.942;2023-08-07T03:09:36;47.20;;;2.87;;
5032;SDS011;2535;49.888;8.942;2023-08-07T03:12:03;41.97;;;2.23;;
5032;SDS011;2535;49.888;8.942;2023-08-07T03:14:29;35.30;;;1.70;;
5032;SDS011;2535;49.888;8.942;2023-08-07T03:16:55;34.90;;;1.60;;
5032;SDS011;2535;49.888;8.942;2023-08-07T03:19:21;35.00;;;1.80;;
5032;SDS011;2535;49.888;8.942;2023-08-07T03:21:47;38.13;;;2.30;;
5032;SDS011;2535;49.888;8.942;2023-08-07T03:24:13;37.60;;;2.10;;
5032;SDS011;2535;49.888;8.942;2023-08-07T03:26:39;35.07;;;1.97;;
5032;SDS011;2535;49.888;8.942;2023-08-07T03:29:06;35.10;;;2.00;;
5032;SDS011;2535;49.888;8.942;2023-08-07T03:31:32;35.20;;;1.70;;
5032;SDS011;2535;49.888;8.942;2023-08-07T03:33:58;34.00;;;1.20;;
5032;SDS011;2535;49.888;8.942;2023-08-07T03:36:23;40.33;;;2.23;;
5032;SDS011;2535;49.888;8.942;2023-08-07T03:38:49;34.67;;;2.17;;
5032;SDS011;2535;49.888;8.942;2023-08-07T03:41:15;34.33;;;2.23;;
5032;SDS011;2535;49.888;8.942;2023-08-07T03:43:41;34.10;;;2.33;;
5032;SDS011;2535;49.888;8.942;2023-08-07T03:46:07;33.90;;;1.67;;
5032;SDS011;2535;49.888;8.942;2023-08-07T03:48:33;34.10;;;1.67;;
5032;SDS011;2535;49.888;8.942;2023-08-07T03:51:03;34.30;;;2.13;;
5032;SDS011;2535;49.888;8.942;2023-08-07T03:53:29;35.00;;;2.23;;
5032;SDS011;2535;49.888;8.942;2023-08-07T03:55:55;34.67;;;1.90;;
5032;SDS011;2535;49.888;8.942;2023-08-07T03:58:21;38.20;;;2.10;;
5032;SDS011;2535;49.888;8.942;2023-08-07T04:00:47;38.80;;;2.27;;
5032;SDS011;2535;49.888;8.942;2023-08-07T04:03:13;35.70;;;1.60;;
5032;SDS011;2535;49.888;8.942;2023-08-07T04:05:39;36.27;;;1.63;;
5032;SDS011;2535;49.888;8.942;2023-08-07T04:08:05;38.73;;;2.53;;
5032;SDS011;2535;49.888;8.942;2023-08-07T04:10:31;36.40;;;1.50;;
5032;SDS011;2535;49.888;8.942;2023-08-07T04:12:57;37.23;;;2.07;;
5032;SDS011;2535;49.888;8.942;2023-08-07T04:15:23;37.50;;;2.03;;
5032;SDS011;2535;49.888;8.942;2023-08-07T04:17:49;38.37;;;1.93;;
5032;SDS011;2535;49.888;8.942;2023-08-07T04:20:15;38.50;;;1.90;;
5032;SDS011;2535;49.888;8.942;2023-08-07T04:22:41;36.87;;;1.97;;
5032;SDS011;2535;49.888;8.942;2023-08-07T04:25:07;36.00;;;2.10;;
5032;SDS011;2535;49.888;8.942;2023-08-07T04:27:33;36.77;;;1.90;;
5032;SDS011;2535;49.888;8.942;2023-08-07T04:29:59;36.53;;;2.27;;
5032;SDS011;2535;49.888;8.942;2023-08-07T04:32:25;38.33;;;2.03;;
5032;SDS011;2535;49.888;8.942;2023-08-07T04:34:51;36.23;;;1.73;;
5032;SDS011;2535;49.888;8.942;2023-08-07T04:37:17;51.40;;;2.17;;
5032;SDS011;2535;49.888;8.942;2023-08-07T04:39:43;41.23;;;2.07;;
5032;SDS011;2535;49.888;8.942;2023-08-07T04:42:09;37.10;;;1.60;;
5032;SDS011;2535;49.888;8.942;2023-08-07T04:44:35;38.30;;;1.90;;
5032;SDS011;2535;49.888;8.942;2023-08-07T04:47:01;36.97;;;1.70;;
5032;SDS011;2535;49.888;8.942;2023-08-07T04:49:27;35.53;;;1.23;;
5032;SDS011;2535;49.888;8.942;2023-08-07T04:51:53;36.03;;;1.37;;
5032;SDS011;2535;49.888;8.942;2023-08-07T04:54:19;37.37;;;1.70;;
5032;SDS011;2535;49.888;8.942;2023-08-07T04:56:45;39.63;;;1.97;;
5032;SDS011;2535;49.888;8.942;2023-08-07T04:59:11;44.03;;;2.40;;
5032;SDS011;2535;49.888;8.942;2023-08-07T05:01:37;37.93;;;2.47;;
5032;SDS011;2535;49.888;8.942;2023-08-07T05:04:03;40.07;;;2.03;;
5032;SDS011;2535;49.888;8.942;2023-08-07T05:06:30;37.00;;;1.73;;
5032;SDS011;2535;49.888;8.942;2023-08-07T05:08:56;36.77;;;1.70;;
5032;SDS011;2535;49.888;8.942;2023-08-07T05:11:22;36.47;;;1.57;;
5032;SDS011;2535;49.888;8.942;2023-08-07T05:13:48;36.30;;;1.50;;
5032;SDS011;2535;49.888;8.942;2023-08-07T05:16:14;38.20;;;2.20;;
5032;SDS011;2535;49.888;8.942;2023-08-07T05:18:40;37.07;;;1.70;;
5032;SDS011;2535;49.888;8.942;2023-08-07T05:21:06;36.53;;;1.70;;
5032;SDS011;2535;49.888;8.942;2023-08-07T05:23:33;36.40;;;1.77;;
5032;SDS011;2535;49.888;8.942;2023-08-07T05:25:59;35.50;;;1.60;;
5032;SDS011;2535;49.888;8.942;2023-08-07T05:28:25;36.57;;;1.97;;
5032;SDS011;2535;49.888;8.942;2023-08-07T05:30:51;36.33;;;2.10;;
5032;SDS011;2535;49.888;8.942;2023-08-07T05:33:17;35.90;;;2.03;;
5032;SDS011;2535;49.888;8.942;2023-08-07T05:35:43;33.87;;;1.60;;
5032;SDS011;2535;49.888;8.942;2023-08-07T05:38:09;34.13;;;1.67;;
5032;SDS011;2535;49.888;8.942;2023-08-07T05:40:35;34.20;;;1.90;;
5032;SDS011;2535;49.888;8.942;2023-08-07T05:43:01;33.37;;;1.50;;
5032;SDS011;2535;49.888;8.942;2023-08-07T05:45:27;33.03;;;1.60;;
5032;SDS011;2535;49.888;8.942;2023-08-07T05:47:53;32.90;;;1.67;;
5032;SDS011;2535;49.888;8.942;2023-08-07T05:50:19;33.93;;;1.50;;
5032;SDS011;2535;49.888;8.942;2023-08-07T05:52:45;33.17;;;1.70;;
5032;SDS011;2535;49.888;8.942;2023-08-07T05:55:11;33.60;;;1.47;;
5032;SDS011;2535;49.888;8.942;2023-08-07T05:57:37;32.37;;;1.73;;
5032;SDS011;2535;49.888;8.942;2023-08-07T06:00:04;34.30;;;2.20;;
5032;SDS011;2535;49.888;8.942;2023-08-07T06:02:30;31.90;;;1.70;;
5032;SDS011;2535;49.888;8.942;2023-08-07T06:04:56;32.23;;;1.70;;
5032;SDS011;2535;49.888;8.942;2023-08-07T06:07:22;31.60;;;1.80;;
5032;SDS011;2535;49.888;8.942;2023-08-07T06:09:48;32.00;;;1.87;;
5032;SDS011;2535;49.888;8.942;2023-08-07T06:12:14;35.87;;;2.17;;
5032;SDS011;2535;49.888;8.942;2023-08-07T06:14:39;34.27;;;2.30;;
5032;SDS011;2535;49.888;8.942;2023-08-07T06:17:05;37.53;;;2.83;;
5032;SDS011;2535;49.888;8.942;2023-08-07T06:19:31;33.30;;;1.60;;
5032;SDS011;2535;49.888;8.942;2023-08-07T06:21:58;32.77;;;1.60;;
5032;SDS011;2535;49.888;8.942;2023-08-07T06:24:24;32.77;;;2.13;;
5032;SDS011;2535;49.888;8.942;2023-08-07T06:26:50;31.10;;;1.50;;
5032;SDS011;2535;49.888;8.942;2023-08-07T06:29:16;33.00;;;1.70;;
5032;SDS011;2535;49.888;8.942;2023-08-07T06:31:42;31.40;;;1.50;;
5032;SDS011;2535;49.888;8.942;2023-08-07T06:34:08;32.93;;;2.67;;
5032;SDS011;2535;49.888;8.942;2023-08-07T06:36:34;34.10;;;2.20;;
5032;SDS011;2535;49.888;8.942;2023-08-07T06:39:00;33.90;;;1.97;;
5032;SDS011;2535;49.888;8.942;2023-08-07T06:41:27;45.93;;;1.93;;
5032;SDS011;2535;49.888;8.942;2023-08-07T06:43:53;32.87;;;1.57;;
5032;SDS011;2535;49.888;8.942;2023-08-07T06:46:19;34.90;;;1.97;;
5032;SDS011;2535;49.888;8.942;2023-08-07T06:48:49;35.00;;;1.77;;
5032;SDS011;2535;49.888;8.942;2023-08-07T06:51:15;36.13;;;1.87;;
5032;SDS011;2535;49.888;8.942;2023-08-07T06:53:41;38.37;;;2.27;;
5032;SDS011;2535;49.888;8.942;2023-08-07T06:56:07;38.67;;;2.33;;
5032;SDS011;2535;49.888;8.942;2023-08-07T06:58:33;38.40;;;1.90;;
5032;SDS011;2535;49.888;8.942;2023-08-07T07:00:59;38.03;;;1.83;;
5032;SDS011;2535;49.888;8.942;2023-08-07T07:03:26;38.73;;;1.70;;
5032;SDS011;2535;49.888;8.942;2023-08-07T07:05:51;38.90;;;1.77;;
5032;SDS011;2535;49.888;8.942;2023-08-07T07:08:17;38.20;;;1.77;;
5032;SDS011;2535;49.888;8.942;2023-08-07T07:10:43;39.10;;;1.90;;
5032;SDS011;2535;49.888;8.942;2023-08-07T07:13:09;38.00;;;1.73;;
5032;SDS011;2535;49.888;8.942;2023-08-07T07:15:35;40.10;;;1.73;;
5032;SDS011;2535;49.888;8.942;2023-08-07T07:18:01;38.27;;;1.73;;
5032;SDS011;2535;49.888;8.942;2023-08-07T07:20:28;45.93;;;2.57;;
5032;SDS011;2535;49.888;8.942;2023-08-07T07:22:54;38.17;;;1.90;;
5032;SDS011;2535;49.888;8.942;2023-08-07T07:25:20;36.57;;;1.60;;
5032;SDS011;2535;49.888;8.942;2023-08-07T07:27:46;50.10;;;2.27;;
5032;SDS011;2535;49.888;8.942;2023-08-07T07:30:11;36.50;;;1.53;;
5032;SDS011;2535;49.888;8.942;2023-08-07T07:32:38;37.17;;;1.70;;
5032;SDS011;2535;49.888;8.942;2023-08-07T07:35:04;37.07;;;1.87;;
5032;SDS011;2535;49.888;8.942;2023-08-07T07:37:30;37.60;;;2.17;;
5032;SDS011;2535;49.888;8.942;2023-08-07T07:39:56;35.77;;;1.80;;
5032;SDS011;2535;49.888;8.942;2023-08-07T07:42:22;34.80;;;1.57;;
5032;SDS011;2535;49.888;8.942;2023-08-07T07:44:48;36.80;;;2.20;;
5032;SDS011;2535;49.888;8.942;2023-08-07T07:47:14;44.23;;;1.87;;
5032;SDS011;2535;49.888;8.942;2023-08-07T07:49:44;35.97;;;2.10;;
5032;SDS011;2535;49.888;8.942;2023-08-07T07:52:11;39.87;;;2.20;;
5032;SDS011;2535;49.888;8.942;2023-08-07T07:54:37;34.60;;;1.80;;
5032;SDS011;2535;49.888;8.942;2023-08-07T07:57:03;34.27;;;1.83;;
5032;SDS011;2535;49.888;8.942;2023-08-07T07:59:29;34.60;;;1.93;;
5032;SDS011;2535;49.888;8.942;2023-08-07T08:01:55;33.60;;;1.43;;
5032;SDS011;2535;49.888;8.942;2023-08-07T08:04:21;36.60;;;2.10;;
5032;SDS011;2535;49.888;8.942;2023-08-07T08:06:48;35.17;;;1.77;;
5032;SDS011;2535;49.888;8.942;2023-08-07T08:09:13;34.60;;;1.63;;
5032;SDS011;2535;49.888;8.942;2023-08-07T08:11:40;36.13;;;2.03;;
5032;SDS011;2535;49.888;8.942;2023-08-07T08:14:06;56.60;;;2.30;;
5032;SDS011;2535;49.888;8.942;2023-08-07T08:16:32;36.53;;;2.10;;
5032;SDS011;2535;49.888;8.942;2023-08-07T08:18:58;38.00;;;2.17;;
5032;SDS011;2535;49.888;8.942;2023-08-07T08:21:24;36.80;;;1.70;;
5032;SDS011;2535;49.888;8.942;2023-08-07T08:23:50;36.50;;;1.53;;
5032;SDS011;2535;49.888;8.942;2023-08-07T08:26:16;36.60;;;1.50;;
5032;SDS011;2535;49.888;8.942;2023-08-07T08:28:42;35.33;;;1.47;;
5032;SDS011;2535;49.888;8.942;2023-08-07T08:31:08;37.03;;;2.10;;
5032;SDS011;2535;49.888;8.942;2023-08-07T08:33:34;35.83;;;2.00;;
5032;SDS011;2535;49.888;8.942;2023-08-07T08:36:00;34.70;;;1.73;;
5032;SDS011;2535;49.888;8.942;2023-08-07T08:38:26;34.73;;;1.77;;
5032;SDS011;2535;49.888;8.942;2023-08-07T08:40:57;35.17;;;1.83;;
5032;SDS011;2535;49.888;8.942;2023-08-07T08:43:23;34.33;;;1.90;;
5032;SDS011;2535;49.888;8.942;2023-08-07T08:45:50;40.30;;;2.17;;
5032;SDS011;2535;49.888;8.942;2023-08-07T08:48:19;34.10;;;1.97;;
5032;SDS011;2535;49.888;8.942;2023-08-07T08:50:49;33.70;;;1.50;;
5032;SDS011;2535;49.888;8.942;2023-08-07T08:53:15;33.90;;;1.73;;
5032;SDS011;2535;49.888;8.942;2023-08-07T08:55:42;35.00;;;1.87;;
5032;SDS011;2535;49.888;8.942;2023-08-07T08:58:11;33.60;;;1.70;;
5032;SDS011;2535;49.888;8.942;2023-08-07T09:00:38;34.10;;;1.60;;
5032;SDS011;2535;49.888;8.942;2023-08-07T09:03:05;33.27;;;1.80;;
5032;SDS011;2535;49.888;8.942;2023-08-07T09:05:31;33.57;;;1.53;;
5032;SDS011;2535;49.888;8.942;2023-08-07T09:07:57;33.37;;;1.60;;
5032;SDS011;2535;49.888;8.942;2023-08-07T09:10:24;34.00;;;1.70;;
5032;SDS011;2535;49.888;8.942;2023-08-07T09:12:57;41.20;;;1.80;;
5032;SDS011;2535;49.888;8.942;2023-08-07T09:15:25;34.80;;;1.70;;
5032;SDS011;2535;49.888;8.942;2023-08-07T09:17:51;34.27;;;1.50;;
5032;SDS011;2535;49.888;8.942;2023-08-07T09:20:19;34.90;;;1.70;;
5032;SDS011;2535;49.888;8.942;2023-08-07T09:22:47;35.77;;;1.60;;
5032;SDS011;2535;49.888;8.942;2023-08-07T09:25:14;38.70;;;1.80;;
5032;SDS011;2535;49.888;8.942;2023-08-07T09:27:40;37.40;;;1.50;;
5032;SDS011;2535;49.888;8.942;2023-08-07T09:30:06;37.47;;;1.80;;
5032;SDS011;2535;49.888;8.942;2023-08-07T09:32:34;37.17;;;1.57;;
5032;SDS011;2535;49.888;8.942;2023-08-07T09:35:01;38.07;;;1.80;;
5032;SDS011;2535;49.888;8.942;2023-08-07T09:37:28;38.43;;;1.87;;
5032;SDS011;2535;49.888;8.942;2023-08-07T09:39:54;38.50;;;1.97;;
5032;SDS011;2535;49.888;8.942;2023-08-07T09:42:20;37.40;;;1.70;;
5032;SDS011;2535;49.888;8.942;2023-08-07T09:44:46;38.20;;;2.50;;
5032;SDS011;2535;49.888;8.942;2023-08-07T09:47:17;37.50;;;1.70;;
5032;SDS011;2535;49.888;8.942;2023-08-07T09:49:43;36.93;;;1.67;;
5032;SDS011;2535;49.888;8.942;2023-08-07T09:52:10;36.93;;;1.83;;
5032;SDS011;2535;49.888;8.942;2023-08-07T09:54:38;36.43;;;1.70;;
5032;SDS011;2535;49.888;8.942;2023-08-07T09:57:04;37.27;;;1.93;;
5032;SDS011;2535;49.888;8.942;2023-08-07T09:59:33;37.23;;;1.87;;
5032;SDS011;2535;49.888;8.942;2023-08-07T10:02:00;38.80;;;2.23;;
5032;SDS011;2535;49.888;8.942;2023-08-07T10:04:27;44.33;;;1.73;;
5032;SDS011;2535;49.888;8.942;2023-08-07T10:06:53;38.43;;;2.00;;
5032;SDS011;2535;49.888;8.942;2023-08-07T10:09:19;35.47;;;1.73;;
5032;SDS011;2535;49.888;8.942;2023-08-07T10:11:46;35.17;;;2.23;;
5032;SDS011;2535;49.888;8.942;2023-08-07T10:14:12;38.63;;;1.33;;
5032;SDS011;2535;49.888;8.942;2023-08-07T10:16:39;34.87;;;1.70;;
5032;SDS011;2535;49.888;8.942;2023-08-07T10:19:06;35.17;;;2.30;;
5032;SDS011;2535;49.888;8.942;2023-08-07T10:21:36;34.13;;;1.87;;
5032;SDS011;2535;49.888;8.942;2023-08-07T10:24:04;34.40;;;1.93;;
5032;SDS011;2535;49.888;8.942;2023-08-07T10:26:31;35.07;;;2.53;;
5032;SDS011;2535;49.888;8.942;2023-08-07T10:28:58;33.43;;;1.70;;
5032;SDS011;2535;49.888;8.942;2023-08-07T10:31:26;36.27;;;2.03;;
5032;SDS011;2535;49.888;8.942;2023-08-07T10:33:52;33.37;;;1.67;;
5032;SDS011;2535;49.888;8.942;2023-08-07T10:36:18;32.77;;;1.33;;
5032;SDS011;2535;49.888;8.942;2023-08-07T10:38:44;34.37;;;2.20;;
5032;SDS011;2535;49.888;8.942;2023-08-07T10:41:14;33.40;;;1.73;;
5032;SDS011;2535;49.888;8.942;2023-08-07T10:43:43;34.20;;;1.63;;
5032;SDS011;2535;49.888;8.942;2023-08-07T10:46:15;37.63;;;1.87;;
5032;SDS011;2535;49.888;8.942;2023-08-07T10:48:42;34.70;;;1.83;;
5032;SDS011;2535;49.888;8.942;2023-08-07T10:51:09;34.27;;;2.37;;
5032;SDS011;2535;49.888;8.942;2023-08-07T10:53:39;33.10;;;1.50;;
5032;SDS011;2535;49.888;8.942;2023-08-07T10:58:41;33.10;;;1.37;;
5032;SDS011;2535;49.888;8.942;2023-08-07T11:03:49;34.83;;;2.10;;
5032;SDS011;2535;49.888;8.942;2023-08-07T11:06:16;34.40;;;2.03;;
5032;SDS011;2535;49.888;8.942;2023-08-07T11:08:42;33.70;;;2.10;;
5032;SDS011;2535;49.888;8.942;2023-08-07T11:11:08;34.23;;;2.03;;
5032;SDS011;2535;49.888;8.942;2023-08-07T11:13:34;39.83;;;2.07;;
5032;SDS011;2535;49.888;8.942;2023-08-07T11:16:01;33.23;;;1.60;;
5032;SDS011;2535;49.888;8.942;2023-08-07T11:18:28;32.87;;;1.30;;
5032;SDS011;2535;49.888;8.942;2023-08-07T11:20:54;33.37;;;1.37;;
5032;SDS011;2535;49.888;8.942;2023-08-07T11:23:27;33.57;;;1.73;;
5032;SDS011;2535;49.888;8.942;2023-08-07T11:25:53;34.00;;;1.80;;
5032;SDS011;2535;49.888;8.942;2023-08-07T11:28:20;34.07;;;1.50;;
5032;SDS011;2535;49.888;8.942;2023-08-07T11:30:48;33.87;;;1.80;;
5032;SDS011;2535;49.888;8.942;2023-08-07T11:33:14;33.20;;;1.37;;
5032;SDS011;2535;49.888;8.942;2023-08-07T11:35:42;33.10;;;1.50;;
5032;SDS011;2535;49.888;8.942;2023-08-07T11:38:08;35.10;;;2.17;;
5032;SDS011;2535;49.888;8.942;2023-08-07T11:40:34;33.63;;;1.83;;
5032;SDS011;2535;49.888;8.942;2023-08-07T11:43:01;35.30;;;2.20;;
5032;SDS011;2535;49.888;8.942;2023-08-07T11:45:27;34.60;;;2.00;;
5032;SDS011;2535;49.888;8.942;2023-08-07T11:47:53;34.33;;;1.70;;
5032;SDS011;2535;49.888;8.942;2023-08-07T11:50:21;36.60;;;1.90;;
5032;SDS011;2535;49.888;8.942;2023-08-07T11:52:47;33.57;;;1.70;;
5032;SDS011;2535;49.888;8.942;2023-08-07T11:55:14;33.50;;;1.50;;
5032;SDS011;2535;49.888;8.942;2023-08-07T11:57:40;34.30;;;1.93;;
5032;SDS011;2535;49.888;8.942;2023-08-07T12:00:08;33.40;;;1.77;;
5032;SDS011;2535;49.888;8.942;2023-08-07T12:02:41;33.97;;;1.70;;
5032;SDS011;2535;49.888;8.942;2023-08-07T12:05:10;34.20;;;2.40;;
5032;SDS011;2535;49.888;8.942;2023-08-07T12:07:37;33.50;;;1.70;;
5032;SDS011;2535;49.888;8.942;2023-08-07T12:10:06;40.30;;;1.77;;
5032;SDS011;2535;49.888;8.942;2023-08-07T12:12:32;34.00;;;1.73;;
5032;SDS011;2535;49.888;8.942;2023-08-07T12:14:59;32.90;;;1.50;;
5032;SDS011;2535;49.888;8.942;2023-08-07T12:17:25;32.90;;;1.60;;
5032;SDS011;2535;49.888;8.942;2023-08-07T12:19:51;34.13;;;2.10;;
5032;SDS011;2535;49.888;8.942;2023-08-07T12:22:19;34.23;;;1.53;;
5032;SDS011;2535;49.888;8.942;2023-08-07T12:24:46;33.30;;;1.47;;
5032;SDS011;2535;49.888;8.942;2023-08-07T12:27:12;35.30;;;2.07;;
5032;SDS011;2535;49.888;8.942;2023-08-07T12:29:38;33.60;;;1.50;;
5032;SDS011;2535;49.888;8.942;2023-08-07T12:32:04;36.63;;;2.47;;
5032;SDS011;2535;49.888;8.942;2023-08-07T12:34:30;34.80;;;2.20;;
5032;SDS011;2535;49.888;8.942;2023-08-07T12:36:57;36.07;;;1.93;;
5032;SDS011;2535;49.888;8.942;2023-08-07T12:39:23;34.60;;;1.73;;
5032;SDS011;2535;49.888;8.942;2023-08-07T12:41:49;36.00;;;2.47;;
5032;SDS011;2535;49.888;8.942;2023-08-07T12:44:15;35.77;;;2.27;;
5032;SDS011;2535;49.888;8.942;2023-08-07T12:46:41;33.47;;;1.43;;
5032;SDS011;2535;49.888;8.942;2023-08-07T12:49:10;32.60;;;1.43;;
5032;SDS011;2535;49.888;8.942;2023-08-07T12:51:36;38.10;;;1.83;;
5032;SDS011;2535;49.888;8.942;2023-08-07T12:54:02;33.90;;;1.80;;
5032;SDS011;2535;49.888;8.942;2023-08-07T12:56:28;33.60;;;1.80;;
5032;SDS011;2535;49.888;8.942;2023-08-07T12:58:54;34.60;;;2.40;;
5032;SDS011;2535;49.888;8.942;2023-08-07T13:01:20;35.13;;;2.00;;
5032;SDS011;2535;49.888;8.942;2023-08-07T13:03:46;34.83;;;1.83;;
5032;SDS011;2535;49.888;8.942;2023-08-07T13:06:12;33.50;;;1.77;;
5032;SDS011;2535;49.888;8.942;2023-08-07T13:08:38;33.97;;;2.20;;
5032;SDS011;2535;49.888;8.942;2023-08-07T13:11:04;34.73;;;1.97;;
5032;SDS011;2535;49.888;8.942;2023-08-07T13:13:30;33.53;;;1.63;;
5032;SDS011;2535;49.888;8.942;2023-08-07T13:15:56;33.23;;;2.17;;
5032;SDS011;2535;49.888;8.942;2023-08-07T13:18:22;34.10;;;2.00;;
5032;SDS011;2535;49.888;8.942;2023-08-07T13:20:48;34.67;;;2.13;;
5032;SDS011;2535;49.888;8.942;2023-08-07T13:23:14;39.47;;;2.07;;
5032;SDS011;2535;49.888;8.942;2023-08-07T13:25:40;35.47;;;1.57;;
5032;SDS011;2535;49.888;8.942;2023-08-07T13:28:06;35.50;;;1.40;;
5032;SDS011;2535;49.888;8.942;2023-08-07T13:30:32;37.60;;;2.63;;
5032;SDS011;2535;49.888;8.942;2023-08-07T13:32:59;33.87;;;1.60;;
5032;SDS011;2535;49.888;8.942;2023-08-07T13:35:25;32.87;;;1.77;;
5032;SDS011;2535;49.888;8.942;2023-08-07T13:37:51;33.73;;;1.97;;
5032;SDS011;2535;49.888;8.942;2023-08-07T13:40:17;32.23;;;1.90;;
5032;SDS011;2535;49.888;8.942;2023-08-07T13:42:43;33.90;;;1.97;;
5032;SDS011;2535;49.888;8.942;2023-08-07T13:45:09;32.50;;;1.90;;
5032;SDS011;2535;49.888;8.942;2023-08-07T13:47:35;31.97;;;1.43;;
5032;SDS011;2535;49.888;8.942;2023-08-07T13:50:02;30.60;;;1.47;;
5032;SDS011;2535;49.888;8.942;2023-08-07T13:52:29;32.50;;;1.93;;
5032;SDS011;2535;49.888;8.942;2023-08-07T13:54:55;32.20;;;1.70;;
5032;SDS011;2535;49.888;8.942;2023-08-07T13:57:21;29.87;;;1.40;;
5032;SDS011;2535;49.888;8.942;2023-08-07T13:59:47;28.63;;;1.40;;
5032;SDS011;2535;49.888;8.942;2023-08-07T14:02:13;29.47;;;1.50;;
5032;SDS011;2535;49.888;8.942;2023-08-07T14:04:39;29.90;;;1.47;;
5032;SDS011;2535;49.888;8.942;2023-08-07T14:07:05;29.70;;;1.60;;
5032;SDS011;2535;49.888;8.942;2023-08-07T14:09:31;26.80;;;1.40;;
5032;SDS011;2535;49.888;8.942;2023-08-07T14:11:57;27.20;;;1.70;;
5032;SDS011;2535;49.888;8.942;2023-08-07T14:14:23;26.43;;;1.40;;
5032;SDS011;2535;49.888;8.942;2023-08-07T14:16:49;25.77;;;1.13;;
5032;SDS011;2535;49.888;8.942;2023-08-07T14:19:15;25.80;;;1.23;;
5032;SDS011;2535;49.888;8.942;2023-08-07T14:21:41;26.07;;;1.10;;
5032;SDS011;2535;49.888;8.942;2023-08-07T14:24:07;28.23;;;1.80;;
5032;SDS011;2535;49.888;8.942;2023-08-07T14:26:33;26.30;;;1.40;;
5032;SDS011;2535;49.888;8.942;2023-08-07T14:28:59;25.60;;;1.13;;
5032;SDS011;2535;49.888;8.942;2023-08-07T14:31:25;26.43;;;1.70;;
5032;SDS011;2535;49.888;8.942;2023-08-07T14:33:51;25.33;;;1.10;;
5032;SDS011;2535;49.888;8.942;2023-08-07T14:36:17;26.43;;;1.33;;
5032;SDS011;2535;49.888;8.942;2023-08-07T14:38:43;24.90;;;1.40;;
5032;SDS011;2535;49.888;8.942;2023-08-07T14:41:09;23.47;;;1.27;;
5032;SDS011;2535;49.888;8.942;2023-08-07T14:43:35;23.40;;;1.07;;
5032;SDS011;2535;49.888;8.942;2023-08-07T14:46:01;22.67;;;0.97;;
5032;SDS011;2535;49.888;8.942;2023-08-07T14:48:27;23.03;;;1.20;;
5032;SDS011;2535;49.888;8.942;2023-08-07T14:50:53;23.10;;;1.17;;
5032;SDS011;2535;49.888;8.942;2023-08-07T14:53:20;22.57;;;1.13;;
5032;SDS011;2535;49.888;8.942;2023-08-07T14:55:46;22.63;;;1.00;;
5032;SDS011;2535;49.888;8.942;2023-08-07T14:58:12;24.50;;;1.40;;
5032;SDS011;2535;49.888;8.942;2023-08-07T15:00:39;22.20;;;1.10;;
5032;SDS011;2535;49.888;8.942;2023-08-07T15:03:05;22.70;;;1.10;;
5032;SDS011;2535;49.888;8.942;2023-08-07T15:05:31;23.93;;;1.20;;